Time;durP1;ratioP1;P1;durP2;ratioP2;P2;SDS_P1;SDS_P2;PMS_P1;PMS_P2;Temp;Humidity;BMP_temperature;BMP_pressure;BME280_temperature;BME280_humidity;BME280_pressure;Samples;Min_cycle;Max_cycle;Signal;HPM_P1;HPM_P2
2023/01/06 07:06:31;;;;;;;3.25;1.88;;;;;;;9.83;100.00;101402.63;5322194;27;20730;-71
2023/01/06 07:09:03;;;;;;;2.25;2.03;;;;;;;9.84;100.00;101403.44;5310977;28;20043;-72
2023/01/06 07:11:34;;;;;;;2.80;2.58;;;;;;;9.82;100.00;101409.28;5302653;28;20383;-72
2023/01/06 07:14:05;;;;;;;3.25;2.10;;;;;;;9.84;100.00;101409.81;5313899;28;20028;-72
2023/01/06 07:16:36;;;;;;;1.92;1.75;;;;;;;9.85;100.00;101405.13;5310659;28;20029;-72
2023/01/06 07:19:08;;;;;;;4.47;1.95;;;;;;;9.86;100.00;101410.38;5343897;27;20028;-71
2023/01/06 07:21:46;;;;;;;6.10;2.45;;;;;;;9.86;100.00;101407.63;5333799;27;20016;-68
2023/01/06 07:24:17;;;;;;;4.43;1.88;;;;;;;9.81;100.00;101402.06;5320799;28;20436;-69
2023/01/06 07:26:48;;;;;;;3.50;1.90;;;;;;;9.84;100.00;101407.03;5326582;28;20024;-69
2023/01/06 07:29:19;;;;;;;2.83;1.70;;;;;;;9.84;100.00;101398.75;5343513;27;20027;-69
2023/01/06 07:31:51;;;;;;;1.80;1.70;;;;;;;9.84;100.00;101395.97;5328681;27;20471;-69
2023/01/06 07:34:22;;;;;;;2.35;1.80;;;;;;;9.85;100.00;101394.88;5321401;28;20055;-69
2023/01/06 07:36:53;;;;;;;2.97;1.70;;;;;;;9.87;100.00;101401.00;5322201;28;20085;-69
2023/01/06 07:39:25;;;;;;;2.25;1.85;;;;;;;9.85;100.00;101407.91;5316443;28;20054;-69
2023/01/06 07:41:56;;;;;;;2.58;1.77;;;;;;;9.85;100.00;101405.13;5326506;28;20024;-68
2023/01/06 07:44:27;;;;;;;2.42;2.15;;;;;;;9.83;100.00;101410.09;5311006;28;20356;-69
2023/01/06 07:47:01;;;;;;;2.72;1.80;;;;;;;9.80;100.00;101409.53;5322192;28;20055;-68
2023/01/06 07:49:33;;;;;;;2.72;1.73;;;;;;;9.83;100.00;101415.66;5321031;28;20481;-69
2023/01/06 07:52:10;;;;;;;2.42;1.88;;;;;;;9.87;100.00;101425.06;5321952;28;20031;-69
2023/01/06 07:54:47;;;;;;;2.58;1.60;;;;;;;9.85;100.00;101427.28;5308132;28;20028;-69
2023/01/06 07:57:19;;;;;;;2.50;1.90;;;;;;;9.87;100.00;101431.47;5312186;28;20509;-69
2023/01/06 07:59:50;;;;;;;1.90;1.80;;;;;;;9.89;100.00;101445.84;5319852;28;20032;-69
2023/01/06 08:02:22;;;;;;;1.60;1.50;;;;;;;9.95;100.00;101442.03;5320793;28;20122;-69
2023/01/06 08:04:53;;;;;;;2.85;2.30;;;;;;;9.93;100.00;101446.16;5312467;28;20048;-69
2023/01/06 08:07:24;;;;;;;3.78;1.80;;;;;;;9.96;100.00;101452.00;5300578;28;20096;-69
2023/01/06 08:09:56;;;;;;;1.90;1.70;;;;;;;9.99;100.00;101445.91;5299497;28;20387;-69
2023/01/06 08:12:27;;;;;;;1.70;1.60;;;;;;;10.00;100.00;101452.28;5311996;28;20490;-68
2023/01/06 08:15:01;;;;;;;1.63;1.52;;;;;;;9.98;100.00;101444.25;5320474;28;20072;-69
2023/01/06 08:17:32;;;;;;;3.65;1.98;;;;;;;9.98;100.00;101455.31;5305383;28;20414;-69
2023/01/06 08:20:04;;;;;;;1.88;1.77;;;;;;;9.98;100.00;101454.50;5305377;28;20051;-69
2023/01/06 08:22:36;;;;;;;1.70;1.60;;;;;;;10.00;100.00;101461.44;5306905;28;20054;-68
2023/01/06 08:25:10;;;;;;;2.55;1.92;;;;;;;10.06;100.00;101467.00;5306234;28;20498;-67
2023/01/06 08:27:42;;;;;;;2.05;1.73;;;;;;;10.10;100.00;101477.28;5294987;28;20032;-67
2023/01/06 08:30:15;;;;;;;1.90;1.80;;;;;;;10.22;100.00;101471.47;5303531;28;20568;-67
2023/01/06 08:32:48;;;;;;;1.98;1.60;;;;;;;10.20;100.00;101482.00;5302396;28;20385;-66
2023/01/06 08:35:19;;;;;;;1.73;1.63;;;;;;;10.23;100.00;101474.00;5285463;28;20024;-66
2023/01/06 08:37:51;;;;;;;6.90;1.75;;;;;;;10.26;100.00;101478.16;5284846;28;20024;-65
2023/01/06 08:40:22;;;;;;;1.95;1.85;;;;;;;10.23;100.00;101485.09;5302099;28;20073;-65
2023/01/06 08:42:54;;;;;;;2.47;1.65;;;;;;;10.19;100.00;101492.25;5293816;28;20029;-66
2023/01/06 08:45:25;;;;;;;2.28;2.00;;;;;;;10.22;100.00;101499.19;5306084;28;20359;-68
2023/01/06 08:47:56;;;;;;;2.40;1.98;;;;;;;10.22;100.00;101501.97;5306097;28;20021;-65
2023/01/06 08:50:28;;;;;;;3.25;2.10;;;;;;;10.24;100.00;101508.91;5299040;28;20051;-67
2023/01/06 08:52:59;;;;;;;2.42;2.22;;;;;;;10.27;100.00;101507.53;5293129;28;20063;-65
2023/01/06 08:55:30;;;;;;;2.13;1.95;;;;;;;10.28;100.00;101509.25;5284829;28;20052;-66
2023/01/06 08:58:04;;;;;;;2.92;2.15;;;;;;;10.22;100.00;101513.06;5284529;28;20028;-68
2023/01/06 09:00:41;;;;;;;3.13;2.45;;;;;;;10.21;100.00;101519.72;5299893;28;20016;-68
2023/01/06 09:03:15;;;;;;;3.65;2.40;;;;;;;10.22;100.00;101521.38;5306268;28;20496;-67
2023/01/06 09:05:56;;;;;;;2.70;2.50;;;;;;;10.27;100.00;101518.63;5304751;28;20044;-68
2023/01/06 09:08:27;;;;;;;3.10;2.90;;;;;;;10.32;100.00;101521.44;5291266;28;20082;-68
2023/01/06 09:11:07;;;;;;;3.15;2.85;;;;;;;10.30;100.00;101531.97;5299056;28;20024;-67
2023/01/06 09:13:38;;;;;;;2.85;2.55;;;;;;;10.32;100.00;101532.53;5283754;28;20037;-67
2023/01/06 09:16:10;;;;;;;4.38;3.20;;;;;;;10.33;100.00;101534.22;5292731;28;20024;-67
2023/01/06 09:18:47;;;;;;;3.25;2.92;;;;;;;10.37;100.00;101543.66;5305674;28;20062;-66
2023/01/06 09:21:21;;;;;;;3.65;3.35;;;;;;;10.36;100.00;101539.22;5300828;28;20429;-68
2023/01/06 09:23:52;;;;;;;3.65;3.35;;;;;;;10.37;100.00;101548.38;5298851;28;20833;-68
2023/01/06 09:26:23;;;;;;;3.90;3.60;;;;;;;10.35;100.00;101547.81;5304428;28;20031;-66
2023/01/06 09:28:55;;;;;;;4.22;3.83;;;;;;;10.37;100.00;101551.13;5302630;28;20027;-65
2023/01/06 09:31:26;;;;;;;4.00;3.60;;;;;;;10.41;100.00;101552.28;5301197;28;20023;-67
2023/01/06 09:33:57;;;;;;;4.13;3.30;;;;;;;10.43;100.00;101556.44;5325749;28;20049;-67
2023/01/06 09:36:28;;;;;;;4.28;3.88;;;;;;;10.41;100.00;101566.97;5326450;28;20059;-67
2023/01/06 09:39:00;;;;;;;4.40;3.92;;;;;;;10.41;100.00;101564.19;5324716;28;20091;-68
2023/01/06 09:42:01;;;;;;;4.45;3.97;;;;;;;10.44;100.00;101574.75;5293424;28;20094;-68
2023/01/06 09:44:41;;;;;;;4.30;3.90;;;;;;;10.43;100.00;101566.69;5307483;28;20024;-68
2023/01/06 09:47:18;;;;;;;5.10;4.07;;;;;;;10.48;100.00;101574.19;5312140;28;20384;-68
2023/01/06 09:50:08;;;;;;;3.95;3.65;;;;;;;10.53;100.00;101572.31;5298028;28;20075;-69
2023/01/06 09:52:50;;;;;;;5.05;3.97;;;;;;;10.57;100.00;101572.56;5285806;28;20044;-67
2023/01/06 09:55:44;;;;;;;6.78;4.35;;;;;;;10.60;100.00;101583.13;5282985;28;20017;-66
2023/01/06 09:58:16;;;;;;;5.18;4.30;;;;;;;10.57;100.00;101584.50;5283493;28;20187;-68
2023/01/06 10:00:51;;;;;;;6.85;4.03;;;;;;;10.63;100.00;101593.66;5283386;28;20115;-68
2023/01/06 10:03:25;;;;;;;4.82;4.28;;;;;;;10.67;100.00;101589.25;5289171;28;20028;-67
2023/01/06 10:06:31;;;;;;;6.38;4.78;;;;;;;10.74;100.00;101592.63;5284391;28;20044;-68
2023/01/06 10:09:17;;;;;;;4.63;4.20;;;;;;;10.73;100.00;101596.47;5282816;28;20516;-68
2023/01/06 10:12:21;;;;;;;4.28;3.97;;;;;;;10.76;100.00;101590.41;5283380;28;20032;-67
2023/01/06 10:15:14;;;;;;;6.00;4.18;;;;;;;10.75;100.00;101585.94;5296597;28;20106;-67
2023/01/06 10:18:05;;;;;;;4.03;3.50;;;;;;;10.73;100.00;101590.09;5282409;28;20024;-67
2023/01/06 10:20:53;;;;;;;6.63;3.80;;;;;;;10.74;100.00;101600.13;5287269;28;20032;-67
2023/01/06 10:24:04;;;;;;;4.63;3.40;;;;;;;10.79;100.00;101592.63;5296171;28;20024;-68
2023/01/06 10:26:43;;;;;;;4.80;3.72;;;;;;;10.82;100.00;101603.19;5282705;28;20470;-68
2023/01/06 10:29:17;;;;;;;3.88;3.45;;;;;;;10.81;100.00;101595.97;5283185;28;20078;-68
2023/01/06 10:31:52;;;;;;;5.22;3.65;;;;;;;10.87;100.00;101594.03;5283529;28;20020;-67
2023/01/06 10:34:26;;;;;;;5.43;3.75;;;;;;;10.79;100.00;101595.41;5299980;28;20328;-67
2023/01/06 10:37:13;;;;;;;5.25;3.50;;;;;;;10.91;100.00;101591.53;5282408;28;20025;-67
2023/01/06 10:39:49;;;;;;;4.65;3.28;;;;;;;11.08;100.00;101589.34;5282794;28;20521;-67
2023/01/06 10:45:43;;;;;;;4.70;4.30;;;;;;;10.98;100.00;101594.88;5297446;28;20039;-67
2023/01/06 10:48:23;;;;;;;7.13;5.20;;;;;;;10.90;100.00;101589.88;5291733;28;20032;-66
2023/01/06 10:50:55;;;;;;;5.22;4.72;;;;;;;10.95;100.00;101584.34;5300140;28;20032;-67
2023/01/06 10:53:27;;;;;;;16.15;5.72;;;;;;;10.90;100.00;101587.09;5302754;28;20031;-66
2023/01/06 10:56:00;;;;;;;6.55;5.65;;;;;;;11.00;100.00;101582.41;5291867;28;20498;-66
2023/01/06 10:58:39;;;;;;;7.28;6.53;;;;;;;10.88;100.00;101585.41;5302961;28;20482;-67
2023/01/06 11:01:25;;;;;;;9.68;7.13;;;;;;;10.83;100.00;101585.41;5300396;28;20036;-69
2023/01/06 11:04:27;;;;;;;9.90;7.10;;;;;;;10.92;100.00;101579.34;5303912;28;20398;-70
2023/01/06 11:07:00;;;;;;;7.05;6.38;;;;;;;10.95;100.00;101584.34;5273349;28;20102;-71
2023/01/06 11:09:35;;;;;;;7.88;6.50;;;;;;;11.04;100.00;101582.69;5282185;28;20041;-68
2023/01/06 11:12:18;;;;;;;8.32;6.78;;;;;;;11.05;100.00;101595.47;5281423;28;20032;-68
2023/01/06 11:14:56;;;;;;;7.15;6.45;;;;;;;11.03;100.00;101586.56;5291406;28;20475;-68
2023/01/06 11:17:28;;;;;;;8.13;6.95;;;;;;;11.14;100.00;101571.59;5303505;28;20418;-68
2023/01/06 11:20:26;;;;;;;11.82;9.05;;;;;;;11.25;100.00;101580.78;5303022;28;20123;-69
2023/01/06 11:23:21;;;;;;;7.95;7.25;;;;;;;11.36;100.00;101584.41;5298861;28;20049;-67
2023/01/06 11:26:00;;;;;;;7.97;7.28;;;;;;;11.40;100.00;101586.34;5301664;28;20059;-68
2023/01/06 11:28:32;;;;;;;7.10;6.50;;;;;;;11.47;100.00;101583.28;5303008;28;20115;-69
2023/01/06 11:31:07;;;;;;;7.43;6.50;;;;;;;11.44;100.00;101583.84;5295813;28;20094;-68
2023/01/06 11:33:48;;;;;;;9.57;5.90;;;;;;;11.39;97.37;101586.63;5293943;28;20040;-67
2023/01/06 11:36:22;;;;;;;6.53;5.75;;;;;;;11.32;95.82;101582.19;5292147;28;20465;-68
2023/01/06 11:39:11;;;;;;;7.13;6.13;;;;;;;11.22;96.42;101575.75;5303365;28;20103;-69
2023/01/06 11:41:46;;;;;;;109.15;97.50;;;;;;;11.09;95.35;101589.09;5298823;28;20031;-68
2023/01/06 11:44:37;;;;;;;7.00;5.85;;;;;;;11.01;94.68;101584.06;5301538;28;20035;-67
2023/01/06 11:47:16;;;;;;;6.00;3.95;;;;;;;10.96;91.89;101577.66;5289844;28;20025;-68
2023/01/06 11:49:51;;;;;;;6.72;4.20;;;;;;;10.92;92.01;101571.84;5311546;28;20020;-67
2023/01/06 11:52:26;;;;;;;6.25;4.78;;;;;;;10.85;92.44;101572.09;5300346;28;20039;-68
2023/01/06 11:55:06;;;;;;;6.47;3.40;;;;;;;10.83;92.56;101563.22;5294094;28;20116;-68
2023/01/06 11:57:49;;;;;;;6.68;3.70;;;;;;;10.84;91.70;101567.66;5298842;28;20438;-68
2023/01/06 12:00:35;;;;;;;7.20;4.15;;;;;;;10.87;94.31;101569.91;5286266;28;20029;-68
2023/01/06 12:03:09;;;;;;;;;;;;;;;10.91;93.86;101572.94;5285418;28;20024;-68
2023/01/06 12:05:59;;;;;;;7.45;3.80;;;;;;;10.84;92.55;101561.28;5285367;28;19917;-68
2023/01/06 12:08:54;;;;;;;7.03;3.50;;;;;;;10.85;92.69;101558.22;5285059;28;20379;-68
2023/01/06 12:11:38;;;;;;;12.38;7.25;;;;;;;10.92;92.96;101557.16;5286099;28;20531;-68
2023/01/06 12:14:18;;;;;;;9.23;6.25;;;;;;;11.20;95.13;101547.47;5294624;28;20032;-68
2023/01/06 12:16:56;;;;;;;6.40;4.75;;;;;;;11.13;91.80;101544.94;5325282;28;20093;-68
2023/01/06 12:19:47;;;;;;;8.65;5.38;;;;;;;11.17;91.80;101553.53;5311927;28;20025;-68
2023/01/06 12:22:21;;;;;;;6.03;5.43;;;;;;;11.20;91.56;101553.84;5284526;28;20135;-68
2023/01/06 12:24:56;;;;;;;11.55;6.90;;;;;;;11.30;92.59;101544.69;5293522;28;20421;-68
2023/01/06 12:27:40;;;;;;;10.57;6.78;;;;;;;11.35;92.30;101543.84;5297500;28;20032;-68
2023/01/06 12:30:55;;;;;;;10.65;6.55;;;;;;;11.39;93.59;101540.22;5324595;28;20047;-69
2023/01/06 12:33:41;;;;;;;6.00;5.45;;;;;;;11.47;93.10;101533.28;5276045;28;20868;-69
2023/01/06 12:36:22;;;;;;;10.52;6.78;;;;;;;11.63;95.42;101534.09;5291556;28;20103;-69
2023/01/06 12:39:10;;;;;;;8.23;5.50;;;;;;;11.73;93.89;101534.94;5285089;28;20112;-69
2023/01/06 12:41:56;;;;;;;7.95;5.30;;;;;;;11.66;92.98;101531.59;5303397;28;20024;-71
2023/01/06 12:44:51;;;;;;;11.35;7.18;;;;;;;11.66;93.63;101544.66;5305144;28;20020;-68
2023/01/06 12:47:33;;;;;;;9.23;4.85;;;;;;;11.60;92.97;101538.25;5305133;28;20497;-69
2023/01/06 12:50:32;;;;;;;13.88;12.52;;;;;;;11.68;93.25;101537.72;5302730;28;20071;-69
2023/01/06 12:53:21;;;;;;;7.57;5.95;;;;;;;11.72;93.99;101544.34;5306190;28;20077;-66
2023/01/06 12:55:59;;;;;;;10.88;7.25;;;;;;;11.67;93.25;101547.16;5306019;28;20489;-67
2023/01/06 12:58:52;;;;;;;12.63;10.02;;;;;;;11.69;94.61;101546.88;5305260;28;20032;-67
2023/01/06 13:01:29;;;;;;;6.53;4.35;;;;;;;11.78;94.29;101547.97;5306245;28;20036;-67
2023/01/06 13:04:03;;;;;;;5.18;3.30;;;;;;;11.72;93.54;101555.47;5303421;28;20098;-67
2023/01/06 13:06:55;;;;;;;4.65;2.40;;;;;;;11.68;93.17;101557.16;5297855;28;20048;-67
2023/01/06 13:09:40;;;;;;;4.32;2.70;;;;;;;11.57;92.47;101552.72;5305253;28;20176;-67
2023/01/06 13:13:01;;;;;;;7.53;2.63;;;;;;;11.56;92.40;101539.94;5283563;28;20017;-67
2023/01/06 13:15:37;;;;;;;3.28;2.50;;;;;;;11.60;93.31;101548.53;5284375;28;20020;-69
2023/01/06 13:18:11;;;;;;;;;;;;;;;11.68;94.72;101557.16;5284411;28;20040;-68
2023/01/06 13:20:48;;;;;;;3.03;1.95;;;;;;;11.59;93.63;101556.06;5283637;28;19924;-68
2023/01/06 13:23:19;;;;;;;3.88;2.30;;;;;;;11.51;92.43;101564.97;5296366;28;20364;-68
2023/01/06 13:26:20;;;;;;;2.97;1.80;;;;;;;11.64;93.56;101558.84;5304570;28;20077;-69
2023/01/06 13:29:29;;;;;;;3.05;2.30;;;;;;;11.66;93.51;101553.84;5305081;28;20039;-68
2023/01/06 13:32:07;;;;;;;7.90;2.08;;;;;;;11.65;93.58;101554.91;5305365;28;20031;-69
2023/01/06 13:35:02;;;;;;;4.93;2.08;;;;;;;11.71;95.92;101553.81;5303955;28;20043;-76
2023/01/06 13:37:37;;;;;;;3.03;2.17;;;;;;;11.57;95.24;101547.16;5292055;28;20475;-69
2023/01/06 13:40:25;;;;;;;2.67;1.75;;;;;;;11.59;95.65;101547.72;5294810;28;20493;-69
2023/01/06 13:43:02;;;;;;;4.22;2.20;;;;;;;11.57;96.17;101538.81;5304943;28;20027;-68
2023/01/06 13:45:39;;;;;;;4.47;2.45;;;;;;;11.60;96.15;101535.47;5304463;28;20036;-68
2023/01/06 13:48:18;;;;;;;5.68;1.90;;;;;;;11.60;96.70;101529.94;5303818;28;20359;-68
2023/01/06 13:50:50;;;;;;;5.20;1.90;;;;;;;11.64;96.24;101541.34;5304607;28;20028;-67
2023/01/06 13:53:22;;;;;;;5.43;1.90;;;;;;;11.68;95.67;101532.16;5303318;28;20028;-68
2023/01/06 13:56:12;;;;;;;22.10;15.38;;;;;;;11.74;95.99;101528.25;5301661;28;20040;-68
2023/01/06 13:58:49;;;;;;;4.35;2.33;;;;;;;11.83;95.94;101530.44;5292251;28;20039;-68
2023/01/06 14:01:20;;;;;;;5.13;1.80;;;;;;;11.79;95.85;101535.75;5286295;28;20078;-68
2023/01/06 14:03:52;;;;;;;4.82;1.98;;;;;;;11.86;95.24;101533.53;5312171;28;20024;-67
2023/01/06 14:06:26;;;;;;;4.20;2.22;;;;;;;11.91;95.98;101536.31;5318606;28;20044;-68
2023/01/06 14:08:59;;;;;;;5.63;2.22;;;;;;;11.89;95.98;101532.16;5286168;28;20471;-68
2023/01/06 14:11:34;;;;;;;3.15;2.83;;;;;;;11.90;96.20;101539.38;5304138;28;20024;-67
2023/01/06 14:14:27;;;;;;;6.10;2.45;;;;;;;11.93;97.26;101536.84;5291778;28;20379;-67
2023/01/06 14:16:58;;;;;;;4.40;2.20;;;;;;;11.92;97.76;101539.91;5282121;28;20033;-67
2023/01/06 14:19:35;;;;;;;3.22;2.17;;;;;;;11.84;97.37;101538.50;5283566;28;20388;-67
2023/01/06 14:22:22;;;;;;;3.80;2.80;;;;;;;11.86;98.36;101538.22;5286797;28;20031;-67
2023/01/06 14:24:59;;;;;;;3.25;2.30;;;;;;;11.86;98.17;101541.00;5303656;28;20047;-68
2023/01/06 14:27:46;;;;;;;3.72;2.20;;;;;;;11.89;98.92;101541.31;5303821;28;20412;-68
2023/01/06 14:30:19;;;;;;;3.13;2.50;;;;;;;11.85;99.34;101531.84;5302456;28;20097;-68
2023/01/06 14:32:51;;;;;;;5.22;3.08;;;;;;;11.79;98.76;101527.41;5304271;28;20020;-68
2023/01/06 14:35:29;;;;;;;6.38;2.30;;;;;;;11.86;99.45;101522.44;5303943;28;20077;-68
2023/01/06 14:38:06;;;;;;;2.40;2.20;;;;;;;11.88;99.20;101524.91;5301730;28;20505;-68
2023/01/06 14:40:46;;;;;;;5.10;2.60;;;;;;;11.87;99.30;101523.25;5303631;28;20032;-68
2023/01/06 14:43:32;;;;;;;3.75;3.40;;;;;;;11.82;100.00;101520.47;5303227;28;20085;-68
2023/01/06 14:46:14;;;;;;;2.70;2.50;;;;;;;11.78;100.00;101522.13;5303711;28;20123;-69
2023/01/06 14:49:04;;;;;;;3.53;2.38;;;;;;;11.73;100.00;101521.03;5286625;28;20075;-68
2023/01/06 14:51:36;;;;;;;2.50;2.28;;;;;;;11.71;100.00;101520.47;5281387;28;20032;-69
2023/01/06 14:54:30;;;;;;;3.45;2.50;;;;;;;11.67;100.00;101530.47;5281595;28;20103;-68
2023/01/06 14:57:04;;;;;;;3.65;2.33;;;;;;;11.67;100.00;101536.03;5285045;28;20039;-67
2023/01/06 14:59:36;;;;;;;2.30;2.10;;;;;;;11.65;100.00;101526.31;5282226;28;20028;-67
2023/01/06 15:02:17;;;;;;;2.03;1.80;;;;;;;11.65;100.00;101529.91;5300069;28;20031;-67
2023/01/06 15:04:57;;;;;;;2.00;1.80;;;;;;;11.55;100.00;101529.94;5290470;28;20060;-67
2023/01/06 15:07:29;;;;;;;3.08;1.60;;;;;;;11.41;100.00;101520.53;5303479;28;20459;-68
2023/01/06 15:10:20;;;;;;;3.20;1.63;;;;;;;11.46;100.00;101514.97;5301402;28;20028;-68
2023/01/06 15:12:51;;;;;;;2.90;1.70;;;;;;;11.36;100.00;101501.09;5302685;28;20020;-67
2023/01/06 15:15:29;;;;;;;2.10;1.90;;;;;;;11.32;100.00;101512.75;5302825;28;20067;-68
2023/01/06 15:18:06;;;;;;;2.03;1.88;;;;;;;11.37;100.00;101524.97;5302555;28;20540;-69
2023/01/06 15:20:57;;;;;;;3.55;2.88;;;;;;;11.36;100.00;101523.31;5300648;28;20035;-68
2023/01/06 15:23:28;;;;;;;3.20;1.90;;;;;;;11.33;100.00;101521.91;5282118;28;20040;-68
2023/01/06 15:26:00;;;;;;;3.47;1.70;;;;;;;11.50;100.00;101524.38;5281733;28;20021;-70
2023/01/06 15:28:34;;;;;;;2.22;2.03;;;;;;;11.42;100.00;101522.19;5289578;28;20103;-69
2023/01/06 15:31:17;;;;;;;6.30;5.63;;;;;;;11.31;100.00;101532.47;5286494;28;20020;-70
2023/01/06 15:33:50;;;;;;;29.30;25.23;;;;;;;11.22;100.00;101529.41;5285610;28;20104;-69
2023/01/06 15:36:22;;;;;;;5.07;4.35;;;;;;;11.20;100.00;101525.25;5289590;28;20031;-67
2023/01/06 15:38:59;;;;;;;3.78;2.83;;;;;;;11.23;100.00;101519.97;5296194;28;20480;-68
2023/01/06 15:41:32;;;;;;;2.47;2.28;;;;;;;11.26;100.00;101516.63;5286691;28;20021;-67
2023/01/06 15:44:20;;;;;;;2.38;2.17;;;;;;;11.22;100.00;101523.88;5309352;28;20023;-66
2023/01/06 15:47:06;;;;;;;2.88;2.58;;;;;;;11.20;100.00;101520.53;5294856;28;20029;-66
2023/01/06 15:49:55;;;;;;;2.78;2.58;;;;;;;11.20;100.00;101528.84;5286074;28;20037;-67
2023/01/06 15:52:34;;;;;;;2.80;2.50;;;;;;;11.12;100.00;101531.34;5292043;28;20028;-67
2023/01/06 15:55:18;;;;;;;4.03;2.53;;;;;;;11.06;100.00;101533.28;5288152;28;20157;-67
2023/01/06 15:58:00;;;;;;;2.95;2.65;;;;;;;11.10;100.00;101526.06;5307164;28;20020;-68
2023/01/06 16:00:40;;;;;;;3.30;3.00;;;;;;;11.08;100.00;101528.28;5302549;28;20446;-68
2023/01/06 16:03:21;;;;;;;2.75;2.50;;;;;;;11.08;100.00;101522.75;5285745;28;20069;-68
2023/01/06 16:06:07;;;;;;;4.45;3.30;;;;;;;11.06;100.00;101528.56;5285008;28;20071;-67
2023/01/06 16:08:40;;;;;;;4.30;3.17;;;;;;;10.98;100.00;101522.72;5300906;28;20035;-67
2023/01/06 16:11:15;;;;;;;3.47;3.17;;;;;;;11.08;100.00;101519.97;5306851;28;20020;-68
2023/01/06 16:13:55;;;;;;;3.10;2.80;;;;;;;11.08;100.00;101528.28;5288596;28;20059;-68
2023/01/06 16:16:31;;;;;;;3.40;3.10;;;;;;;11.01;100.00;101527.72;5284770;28;20077;-68
2023/01/06 16:19:19;;;;;;;3.53;3.03;;;;;;;11.01;100.00;101522.16;5287854;28;20020;-68
2023/01/06 16:21:53;;;;;;;5.43;3.70;;;;;;;10.99;100.00;101513.28;5305665;28;20032;-68
2023/01/06 16:24:27;;;;;;;3.70;3.35;;;;;;;10.95;100.00;101512.19;5306202;28;20027;-68
2023/01/06 16:27:05;;;;;;;3.60;3.30;;;;;;;10.88;100.00;101512.44;5306214;28;20174;-69
2023/01/06 16:29:37;;;;;;;3.90;3.60;;;;;;;10.91;100.00;101513.84;5294341;28;20532;-69
2023/01/06 16:32:28;;;;;;;4.20;3.88;;;;;;;10.95;100.00;101512.19;5303791;28;20024;-68
2023/01/06 16:35:01;;;;;;;4.43;3.90;;;;;;;10.94;100.00;101522.47;5306168;28;20035;-68
2023/01/06 16:37:33;;;;;;;4.40;4.00;;;;;;;10.96;100.00;101524.94;5321779;28;20054;-68
